createdAt,value
2023-01-03T00:02:00.605Z,94.29
2023-01-03T00:08:05.236Z,94.86
2023-01-03T00:14:08.274Z,95.12
2023-01-03T00:20:11.586Z,93.87
2023-01-03T00:26:15.818Z,94.28
2023-01-03T00:32:18.873Z,93.77
2023-01-03T00:38:20.740Z,93.58
2023-01-03T00:44:22.814Z,93.18
2023-01-03T00:50:24.731Z,94.30
2023-01-03T00:56:33.364Z,94.41
2023-01-03T01:02:38.566Z,94.70
2023-01-03T01:08:41.143Z,93.71
2023-01-03T01:14:43.098Z,94.77
2023-01-03T01:20:44.990Z,95.40
2023-01-03T01:26:47.433Z,96.12
2023-01-03T01:32:49.319Z,96.72
2023-01-03T01:39:01.249Z,97.74
2023-01-03T01:45:11.994Z,98.76
2023-01-03T01:51:14.433Z,98.76
2023-01-03T01:57:21.245Z,98.60
2023-01-03T02:03:23.209Z,98.05
2023-01-03T02:09:25.185Z,97.11
2023-01-03T02:15:38.295Z,93.27
2023-01-03T02:22:20.751Z,93.41
2023-01-03T02:28:40.957Z,92.54
2023-01-03T02:35:18.048Z,93.26
2023-01-03T02:42:16.519Z,93.25
2023-01-03T02:49:06.151Z,92.82
2023-01-03T02:55:26.785Z,92.28
2023-01-03T03:01:30.970Z,92.63
2023-01-03T03:07:39.138Z,93.26
2023-01-03T03:13:48.917Z,93.44
2023-01-03T03:20:32.547Z,93.63
2023-01-03T03:26:42.049Z,93.55
2023-01-03T03:32:48.564Z,94.64
2023-01-03T03:38:50.974Z,95.04
2023-01-03T03:45:03.144Z,95.13
2023-01-03T03:51:17.879Z,94.22
2023-01-03T03:57:40.022Z,94.34
2023-01-03T04:03:46.712Z,94.64
2023-01-03T04:09:48.632Z,94.70
2023-01-03T04:15:50.551Z,94.69
2023-01-03T04:21:52.426Z,95.83
2023-01-03T04:27:54.460Z,95.79
2023-01-03T04:33:56.436Z,94.73
2023-01-03T04:39:58.419Z,95.20
2023-01-03T04:46:00.402Z,96.13
2023-01-03T04:52:02.322Z,95.74
2023-01-03T04:58:04.197Z,95.75
2023-01-03T05:04:06.114Z,95.04
2023-01-03T05:10:08.507Z,95.85
2023-01-03T05:16:17.663Z,96.03
2023-01-03T05:22:38.316Z,97.48
2023-01-03T05:28:41.989Z,99.20
2023-01-03T05:34:46.617Z,99.87
2023-01-03T05:40:48.567Z,100.00
2023-01-03T05:46:50.767Z,100.00
2023-01-03T05:52:52.810Z,100.00
2023-01-03T05:58:54.742Z,99.98
2023-01-03T06:04:56.697Z,100.00
2023-01-03T06:11:14.228Z,100.00
2023-01-03T06:17:34.730Z,99.63
2023-01-03T06:23:36.612Z,99.72
2023-01-03T06:29:39.344Z,99.35
2023-01-03T06:35:41.227Z,98.70
2023-01-03T06:41:43.101Z,97.91
2023-01-03T06:48:03.693Z,97.28
2023-01-03T06:54:11.819Z,97.82
2023-01-03T07:00:14.492Z,97.70
2023-01-03T07:06:16.373Z,98.10
2023-01-03T07:12:39.578Z,98.13
2023-01-03T07:18:41.479Z,98.23
2023-01-03T07:24:43.389Z,97.96
2023-01-03T07:30:46.609Z,97.65
2023-01-03T07:36:48.576Z,96.92
2023-01-03T07:43:08.679Z,96.38
2023-01-03T07:49:12.255Z,97.35
2023-01-03T07:55:14.469Z,98.49
2023-01-03T08:01:23.197Z,98.78
2023-01-03T08:07:25.181Z,98.64
2023-01-03T08:13:27.166Z,96.85
2023-01-03T08:19:29.084Z,96.36
2023-01-03T08:25:31.093Z,97.18
2023-01-03T08:31:37.867Z,97.22
2023-01-03T08:37:39.839Z,97.83
2023-01-03T08:43:44.952Z,97.46
2023-01-03T08:49:46.907Z,97.52
2023-01-03T08:55:48.957Z,97.76
2023-01-03T09:01:51.041Z,98.67
2023-01-03T09:07:55.015Z,98.31
2023-01-03T09:13:56.965Z,98.20
2023-01-03T09:19:58.847Z,98.04
2023-01-03T09:26:00.901Z,99.34
2023-01-03T09:32:06.336Z,99.49
2023-01-03T09:38:11.501Z,98.43
2023-01-03T09:44:14.400Z,98.52
2023-01-03T09:50:43.684Z,98.06
2023-01-03T09:57:08.295Z,97.50
2023-01-03T10:03:51.125Z,98.07
2023-01-03T10:10:45.659Z,95.93
2023-01-03T10:17:09.396Z,96.26
2023-01-03T10:23:11.985Z,95.50
2023-01-03T10:29:18.434Z,94.49
2023-01-03T10:35:33.981Z,94.92
2023-01-03T10:41:48.667Z,94.28
2023-01-03T10:48:03.011Z,94.01
2023-01-03T10:54:42.391Z,92.11
2023-01-03T11:00:44.405Z,91.32
2023-01-03T11:07:09.272Z,90.47
2023-01-03T11:13:28.669Z,89.57
2023-01-03T11:19:33.750Z,87.25
2023-01-03T11:25:51.495Z,84.49
2023-01-03T11:32:28.302Z,81.44
2023-01-03T11:39:15.666Z,79.80
2023-01-03T11:46:01.899Z,75.70
2023-01-03T11:52:27.435Z,72.42
2023-01-03T11:59:13.762Z,71.52
2023-01-03T12:05:44.634Z,73.19
2023-01-03T12:12:41.233Z,74.13
2023-01-03T12:18:58.406Z,74.74
2023-01-03T12:25:28.500Z,75.05
2023-01-03T12:31:53.329Z,73.48
2023-01-03T12:37:56.781Z,74.25
2023-01-03T12:44:10.611Z,74.09
2023-01-03T12:50:27.222Z,75.42
2023-01-03T12:56:37.883Z,75.53
2023-01-03T13:02:57.951Z,74.55
2023-01-03T13:09:24.076Z,75.96
2023-01-03T13:15:37.265Z,76.31
2023-01-03T13:22:21.073Z,76.55
2023-01-03T13:28:22.972Z,77.11
2023-01-03T13:34:33.849Z,78.73
2023-01-03T13:41:16.083Z,78.48
2023-01-03T13:47:00.919Z,79.69
2023-01-03T13:53:10.245Z,80.28
2023-01-03T13:59:15.128Z,81.37
2023-01-03T14:06:15.195Z,81.83
2023-01-03T14:13:00.217Z,82.13
2023-01-03T14:19:24.374Z,82.69
2023-01-03T14:25:44.478Z,83.63
2023-01-03T14:31:50.711Z,83.54
2023-01-03T14:37:52.633Z,83.79
2023-01-03T14:44:10.439Z,82.68
2023-01-03T14:50:29.110Z,83.36
2023-01-03T14:56:32.107Z,83.44
2023-01-03T15:02:40.137Z,83.72
2023-01-03T15:08:44.792Z,83.15
2023-01-03T15:14:46.714Z,83.72
2023-01-03T15:20:52.710Z,83.13
2023-01-03T15:26:54.583Z,83.27
2023-01-03T15:32:58.630Z,83.76
2023-01-03T15:39:00.721Z,83.47
2023-01-03T15:45:12.204Z,84.08
2023-01-03T15:51:14.110Z,84.37
2023-01-03T15:57:25.832Z,84.41
2023-01-03T16:03:32.471Z,84.30
2023-01-03T16:09:34.474Z,85.17
2023-01-03T16:15:36.464Z,84.07
2023-01-03T16:21:38.459Z,84.91
2023-01-03T16:27:40.365Z,84.62
2023-01-03T16:33:43.383Z,84.97
2023-01-03T16:39:48.307Z,85.54
2023-01-03T16:45:52.120Z,86.03
2023-01-03T16:51:57.545Z,85.82
2023-01-03T16:58:00.539Z,86.82
2023-01-03T17:04:02.521Z,88.48
2023-01-03T17:10:05.337Z,89.32
2023-01-03T17:16:19.521Z,90.55
2023-01-03T17:22:25.399Z,91.54
2023-01-03T17:28:27.342Z,91.12
2023-01-03T17:34:31.786Z,92.00
2023-01-03T17:40:34.598Z,92.11
2023-01-03T17:46:55.311Z,93.33
2023-01-03T17:52:58.679Z,94.39
2023-01-03T17:59:00.750Z,94.77
2023-01-03T18:05:26.073Z,95.00
2023-01-03T18:11:27.206Z,94.77
2023-01-03T18:17:33.746Z,96.00
2023-01-03T18:23:38.635Z,96.06
2023-01-03T18:29:40.557Z,97.29
2023-01-03T18:35:42.996Z,98.49
2023-01-03T18:41:45.947Z,97.51
2023-01-03T18:47:47.855Z,98.13
2023-01-03T18:53:58.291Z,98.78
2023-01-03T19:00:00.168Z,97.95
2023-01-03T19:06:06.028Z,98.32
2023-01-03T19:12:18.128Z,98.89
2023-01-03T19:18:20.596Z,99.12
2023-01-03T19:24:39.273Z,98.12
2023-01-03T19:30:46.371Z,97.28
2023-01-03T19:36:49.382Z,95.38
2023-01-03T19:42:57.555Z,94.46
2023-01-03T19:48:59.456Z,94.72
2023-01-03T19:55:01.432Z,94.05
2023-01-03T20:01:03.997Z,93.75
2023-01-03T20:07:16.107Z,94.94
2023-01-03T20:13:23.256Z,95.42
2023-01-03T20:19:25.359Z,95.86
2023-01-03T20:25:32.653Z,96.33
2023-01-03T20:31:34.958Z,96.90
2023-01-03T20:37:36.932Z,97.45
2023-01-03T20:43:38.910Z,98.45
2023-01-03T20:49:43.155Z,98.46
2023-01-03T20:55:45.766Z,98.84
2023-01-03T21:01:49.066Z,99.16
2023-01-03T21:08:09.984Z,100.00
2023-01-03T21:14:11.971Z,100.00
2023-01-03T21:20:20.457Z,100.00
2023-01-03T21:26:22.368Z,100.00
2023-01-03T21:32:24.535Z,100.00
2023-01-03T21:38:26.415Z,100.00
2023-01-03T21:44:28.356Z,100.00
2023-01-03T21:50:32.252Z,100.00
2023-01-03T21:56:37.476Z,100.00
2023-01-03T22:03:00.367Z,100.00
2023-01-03T22:09:04.456Z,100.00
2023-01-03T22:15:07.295Z,100.00
2023-01-03T22:21:11.091Z,100.00
2023-01-03T22:27:13.018Z,100.00
2023-01-03T22:33:14.914Z,100.00
2023-01-03T22:39:16.822Z,100.00
2023-01-03T22:45:18.884Z,100.00
2023-01-03T22:51:21.935Z,100.00
2023-01-03T22:57:23.868Z,100.00
2023-01-03T23:03:25.746Z,100.00
2023-01-03T23:09:27.661Z,100.00
2023-01-03T23:15:32.078Z,100.00
2023-01-03T23:21:34.771Z,100.00
2023-01-03T23:27:36.716Z,100.00
2023-01-03T23:33:38.650Z,100.00
2023-01-03T23:39:40.539Z,100.00
2023-01-03T23:45:42.429Z,100.00
2023-01-03T23:51:44.371Z,100.00
2023-01-03T23:57:46.254Z,100.00
